createdAt,value
2017-11-06T00:00:14.120Z,4.9
2017-11-06T00:01:14.104Z,4.85
2017-11-06T00:02:14.113Z,4.85
2017-11-06T00:03:14.080Z,4.92
2017-11-06T00:04:14.746Z,4.92
2017-11-06T00:05:14.048Z,4.94
2017-11-06T00:06:14.033Z,4.91
2017-11-06T00:07:14.021Z,4.92
2017-11-06T00:08:14.347Z,4.97
2017-11-06T00:09:13.989Z,4.91
2017-11-06T00:10:14.319Z,4.9
2017-11-06T00:11:13.964Z,4.9
2017-11-06T00:12:14.338Z,4.83
2017-11-06T00:13:13.943Z,4.83
2017-11-06T00:14:13.918Z,4.83
2017-11-06T00:15:14.264Z,4.9
2017-11-06T00:16:13.889Z,4.85
2017-11-06T00:17:13.877Z,4.87
2017-11-06T00:18:13.864Z,4.74
2017-11-06T00:19:14.532Z,4.75
2017-11-06T00:20:13.832Z,4.79
2017-11-06T00:21:13.817Z,4.78
2017-11-06T00:22:14.143Z,4.87
2017-11-06T00:23:13.801Z,4.79
2017-11-06T00:24:13.777Z,4.88
2017-11-06T00:25:13.767Z,4.79
2017-11-06T00:26:14.104Z,4.79
2017-11-06T00:27:13.733Z,4.79
2017-11-06T00:28:14.058Z,4.85
2017-11-06T00:29:13.726Z,4.78
2017-11-06T00:30:14.374Z,4.79
2017-11-06T00:31:13.676Z,4.79
2017-11-06T00:32:13.999Z,4.9
2017-11-06T00:33:13.995Z,4.79
2017-11-06T00:34:13.975Z,4.9
2017-11-06T00:35:14.313Z,4.9
2017-11-06T00:36:13.602Z,4.92
2017-11-06T00:37:13.589Z,4.83
2017-11-06T00:38:13.574Z,4.79
2017-11-06T00:39:13.560Z,4.76
2017-11-06T00:40:14.224Z,4.9
2017-11-06T00:41:13.529Z,4.75
2017-11-06T00:42:13.514Z,4.79
2017-11-06T00:43:13.510Z,4.79
2017-11-06T00:44:13.860Z,4.76
2017-11-06T00:45:13.815Z,4.88
2017-11-06T00:46:13.795Z,4.91
2017-11-06T00:47:13.442Z,4.83
2017-11-06T00:48:13.771Z,4.76
2017-11-06T00:49:13.416Z,4.78
2017-11-06T00:50:13.753Z,4.9
2017-11-06T00:51:13.386Z,4.84
2017-11-06T00:52:14.053Z,4.79
2017-11-06T00:53:13.374Z,4.88
2017-11-06T00:54:13.685Z,4.76
2017-11-06T00:55:13.336Z,4.79
2017-11-06T00:56:13.313Z,4.74
2017-11-06T00:57:13.984Z,4.74
2017-11-06T00:58:13.299Z,4.85
2017-11-06T00:59:13.270Z,4.72
2017-11-06T01:00:13.254Z,4.75
2017-11-06T01:01:13.586Z,4.78
2017-11-06T01:02:13.568Z,4.91
2017-11-06T01:03:13.564Z,4.83
2017-11-06T01:04:13.198Z,4.85
2017-11-06T01:05:13.192Z,4.84
2017-11-06T01:06:13.170Z,4.87
2017-11-06T01:07:13.512Z,4.9
2017-11-06T01:08:13.500Z,4.84
2017-11-06T01:09:13.465Z,4.87
2017-11-06T01:10:13.108Z,4.72
2017-11-06T01:11:13.439Z,4.75
2017-11-06T01:12:13.418Z,4.69
2017-11-06T01:13:13.418Z,4.84
2017-11-06T01:14:13.396Z,4.75
2017-11-06T01:15:13.036Z,4.78
2017-11-06T01:16:13.370Z,4.85
2017-11-06T01:17:13.007Z,4.74
2017-11-06T01:18:13.679Z,4.84
2017-11-06T01:19:12.977Z,4.85
2017-11-06T01:20:12.964Z,4.84
2017-11-06T01:21:13.294Z,4.85
2017-11-06T01:22:12.936Z,4.92
2017-11-06T01:23:12.921Z,4.85
2017-11-06T01:24:12.910Z,4.87
2017-11-06T01:25:13.235Z,4.83
2017-11-06T01:26:13.249Z,4.79
2017-11-06T01:27:12.861Z,4.88
2017-11-06T01:28:13.230Z,4.88
2017-11-06T01:29:13.170Z,4.9
2017-11-06T01:30:13.503Z,4.79
2017-11-06T01:31:13.158Z,4.84
2017-11-06T01:32:13.132Z,4.84
2017-11-06T01:33:13.476Z,4.91
2017-11-06T01:34:13.446Z,4.85
2017-11-06T01:35:13.101Z,4.75
2017-11-06T01:36:12.731Z,4.75
2017-11-06T01:37:13.080Z,4.83
2017-11-06T01:38:12.705Z,4.85
2017-11-06T01:39:13.370Z,4.87
2017-11-06T01:40:12.676Z,4.9
2017-11-06T01:41:12.661Z,4.84
2017-11-06T01:42:12.985Z,4.88
2017-11-06T01:43:12.670Z,4.78
2017-11-06T01:44:12.959Z,4.83
2017-11-06T01:45:12.615Z,4.85
2017-11-06T01:46:12.953Z,4.76
2017-11-06T01:47:12.911Z,4.87
2017-11-06T01:48:12.580Z,4.84
2017-11-06T01:49:12.542Z,4.74
2017-11-06T01:50:12.530Z,4.78
2017-11-06T01:51:12.853Z,4.74
2017-11-06T01:52:12.501Z,4.74
2017-11-06T01:53:12.490Z,4.79
2017-11-06T01:54:13.171Z,4.83
2017-11-06T01:55:12.461Z,4.85
2017-11-06T01:56:13.122Z,4.78
2017-11-06T01:57:12.430Z,4.88
2017-11-06T01:58:12.753Z,4.79
2017-11-06T01:59:12.741Z,4.78
2017-11-06T02:00:12.382Z,4.83
2017-11-06T02:01:12.717Z,4.84
2017-11-06T02:02:12.696Z,4.85
2017-11-06T02:03:12.344Z,4.84
2017-11-06T02:04:12.670Z,4.79
2017-11-06T02:05:13.018Z,4.79
2017-11-06T02:06:12.300Z,4.84
2017-11-06T02:07:12.287Z,4.87
2017-11-06T02:08:12.294Z,4.85
2017-11-06T02:09:12.603Z,4.72
2017-11-06T02:10:12.595Z,4.76
2017-11-06T02:11:12.236Z,4.78
2017-11-06T02:12:12.212Z,4.84
2017-11-06T02:13:12.562Z,4.88
2017-11-06T02:14:12.196Z,4.78
2017-11-06T02:15:12.518Z,4.87
2017-11-06T02:16:12.496Z,4.78
2017-11-06T02:17:12.480Z,4.85
2017-11-06T02:18:12.167Z,4.78
2017-11-06T02:19:12.115Z,4.87
2017-11-06T02:20:12.449Z,4.91
2017-11-06T02:21:12.770Z,4.9
2017-11-06T02:22:12.410Z,4.9
2017-11-06T02:23:12.069Z,4.85
2017-11-06T02:24:12.383Z,4.84
2017-11-06T02:25:12.058Z,4.76
2017-11-06T02:26:12.352Z,4.85
2017-11-06T02:27:12.689Z,4.87
2017-11-06T02:28:11.997Z,4.84
2017-11-06T02:29:12.651Z,4.88
2017-11-06T02:30:12.315Z,4.85
2017-11-06T02:31:12.280Z,4.85
2017-11-06T02:32:12.274Z,4.84
2017-11-06T02:33:12.591Z,4.76
2017-11-06T02:34:11.897Z,4.85
2017-11-06T02:35:11.882Z,4.85
2017-11-06T02:36:11.866Z,4.88
2017-11-06T02:37:12.191Z,4.84
2017-11-06T02:38:12.186Z,4.83
2017-11-06T02:39:12.167Z,4.75
2017-11-06T02:40:12.519Z,4.79
2017-11-06T02:41:11.796Z,4.84
2017-11-06T02:42:12.129Z,4.72
2017-11-06T02:43:11.785Z,4.74
2017-11-06T02:44:12.436Z,4.85
2017-11-06T02:45:11.736Z,4.88
2017-11-06T02:46:11.731Z,4.84
2017-11-06T02:47:11.710Z,4.76
2017-11-06T02:48:11.709Z,4.83
2017-11-06T02:49:11.676Z,4.71
2017-11-06T02:50:11.663Z,4.79
2017-11-06T02:51:11.685Z,4.72
2017-11-06T02:52:11.636Z,4.75
2017-11-06T02:53:11.962Z,4.76
2017-11-06T02:54:11.609Z,4.78
2017-11-06T02:55:11.935Z,4.76
2017-11-06T02:56:11.916Z,4.79
2017-11-06T02:57:11.565Z,4.79
2017-11-06T02:58:11.893Z,4.79
2017-11-06T02:59:11.879Z,4.76
2017-11-06T03:00:11.861Z,4.69
2017-11-06T03:01:11.856Z,4.69
2017-11-06T03:02:11.491Z,4.68
2017-11-06T03:03:11.821Z,4.69
2017-11-06T03:04:11.805Z,4.68
2017-11-06T03:05:11.447Z,4.69
2017-11-06T03:06:11.778Z,4.69
2017-11-06T03:07:11.416Z,4.68
2017-11-06T03:08:12.086Z,4.68
2017-11-06T03:09:12.089Z,4.69
2017-11-06T03:10:11.376Z,4.69
2017-11-06T03:11:11.358Z,4.69
2017-11-06T03:12:11.345Z,4.69
2017-11-06T03:13:11.677Z,4.69
2017-11-06T03:14:11.999Z,4.69
2017-11-06T03:15:11.302Z,4.68
2017-11-06T03:16:11.298Z,4.65
2017-11-06T03:17:11.618Z,4.6
2017-11-06T03:18:11.276Z,4.66
2017-11-06T03:19:11.588Z,4.66
2017-11-06T03:20:11.246Z,4.69
2017-11-06T03:21:11.553Z,4.58
2017-11-06T03:22:11.201Z,4.68
2017-11-06T03:23:11.867Z,4.65
2017-11-06T03:24:11.199Z,4.68
2017-11-06T03:25:11.156Z,4.68
2017-11-06T03:26:11.151Z,4.64
2017-11-06T03:27:11.127Z,4.61
2017-11-06T03:28:11.130Z,4.6
2017-11-06T03:29:11.441Z,4.58
2017-11-06T03:30:11.102Z,4.56
2017-11-06T03:31:11.113Z,4.51
2017-11-06T03:32:11.395Z,4.44
2017-11-06T03:33:11.416Z,4.46
2017-11-06T03:34:11.022Z,4.48
2017-11-06T03:35:11.010Z,4.51
2017-11-06T03:36:11.013Z,4.48
2017-11-06T03:37:10.984Z,4.42
2017-11-06T03:38:11.308Z,4.47
2017-11-06T03:39:10.953Z,4.48
2017-11-06T03:40:11.307Z,4.53
2017-11-06T03:41:10.920Z,4.47
2017-11-06T03:42:10.907Z,4.47
2017-11-06T03:43:11.235Z,4.5
2017-11-06T03:44:11.224Z,4.57
2017-11-06T03:45:10.862Z,4.53
2017-11-06T03:46:11.527Z,4.54
2017-11-06T03:47:11.182Z,4.56
2017-11-06T03:48:10.842Z,4.53
2017-11-06T03:49:10.805Z,4.47
2017-11-06T03:50:11.136Z,4.51
2017-11-06T03:51:11.125Z,4.5
2017-11-06T03:52:10.768Z,4.47
2017-11-06T03:53:10.761Z,4.48
2017-11-06T03:54:10.731Z,4.4
2017-11-06T03:55:10.717Z,4.46
2017-11-06T03:56:11.408Z,4.42
2017-11-06T03:57:10.707Z,4.39
2017-11-06T03:58:10.671Z,4.44
2017-11-06T03:59:11.357Z,4.38
2017-11-06T04:00:10.645Z,4.42
2017-11-06T04:01:10.628Z,4.42
2017-11-06T04:02:10.624Z,4.42
2017-11-06T04:03:11.286Z,4.42
2017-11-06T04:04:10.947Z,4.39
2017-11-06T04:05:11.257Z,4.47
2017-11-06T04:06:10.554Z,4.47
2017-11-06T04:07:10.881Z,4.4
2017-11-06T04:08:10.526Z,4.4
2017-11-06T04:09:10.513Z,4.46
2017-11-06T04:10:10.495Z,4.42
2017-11-06T04:11:10.482Z,4.47
2017-11-06T04:12:10.815Z,4.42
2017-11-06T04:13:10.450Z,4.48
2017-11-06T04:14:11.126Z,4.46
2017-11-06T04:15:10.765Z,4.4
2017-11-06T04:16:10.769Z,4.42
2017-11-06T04:17:10.405Z,4.48
2017-11-06T04:18:11.158Z,4.4
2017-11-06T04:19:10.386Z,4.46
2017-11-06T04:20:10.347Z,4.44
2017-11-06T04:21:10.334Z,4.47
2017-11-06T04:22:10.318Z,4.44
2017-11-06T04:23:10.645Z,4.4
2017-11-06T04:24:10.650Z,4.4
2017-11-06T04:25:10.617Z,4.39
2017-11-06T04:26:10.263Z,4.39
2017-11-06T04:27:10.249Z,4.38
2017-11-06T04:28:10.575Z,4.35
2017-11-06T04:29:10.215Z,4.38
2017-11-06T04:30:10.545Z,4.33
2017-11-06T04:31:10.187Z,4.4
2017-11-06T04:32:10.530Z,4.42
2017-11-06T04:33:10.500Z,4.44
2017-11-06T04:34:10.496Z,4.38
2017-11-06T04:35:10.472Z,4.36
2017-11-06T04:36:10.453Z,4.38
2017-11-06T04:37:10.445Z,4.36
2017-11-06T04:38:10.083Z,4.35
2017-11-06T04:39:10.068Z,4.4
2017-11-06T04:40:10.424Z,4.39
2017-11-06T04:41:10.380Z,4.33
2017-11-06T04:42:10.716Z,4.4
2017-11-06T04:43:10.348Z,4.39
2017-11-06T04:44:10.341Z,4.36
2017-11-06T04:45:09.979Z,4.36
2017-11-06T04:46:10.304Z,4.32
2017-11-06T04:47:09.951Z,4.33
2017-11-06T04:48:09.938Z,4.38
2017-11-06T04:49:09.922Z,4.38
2017-11-06T04:50:10.249Z,4.35
2017-11-06T04:51:10.567Z,4.32
2017-11-06T04:52:10.219Z,4.3
2017-11-06T04:53:10.202Z,4.36
2017-11-06T04:54:10.185Z,4.26
2017-11-06T04:55:09.831Z,4.32
2017-11-06T04:56:09.817Z,4.35
2017-11-06T04:57:09.799Z,4.3
2017-11-06T04:58:09.785Z,4.33
2017-11-06T04:59:10.109Z,4.29
2017-11-06T05:00:09.779Z,4.24
2017-11-06T05:01:09.749Z,4.3
2017-11-06T05:02:09.728Z,4.33
2017-11-06T05:03:09.726Z,4.3
2017-11-06T05:04:09.698Z,4.29
2017-11-06T05:05:09.682Z,4.29
2017-11-06T05:06:10.013Z,4.29
2017-11-06T05:07:09.988Z,4.24
2017-11-06T05:08:09.640Z,4.15
2017-11-06T05:09:09.960Z,4.22
2017-11-06T05:10:09.948Z,4.29
2017-11-06T05:11:09.595Z,4.2
2017-11-06T05:12:09.920Z,4.3
2017-11-06T05:13:09.564Z,4.22
2017-11-06T05:14:09.550Z,4.22
2017-11-06T05:15:09.554Z,4.21
2017-11-06T05:16:09.516Z,4.2
2017-11-06T05:17:09.503Z,4.29
2017-11-06T05:18:09.488Z,4.2
2017-11-06T05:19:09.472Z,4.29
2017-11-06T05:20:09.820Z,4.26
2017-11-06T05:21:09.450Z,4.2
2017-11-06T05:22:09.429Z,4.2
2017-11-06T05:23:09.413Z,4.26
2017-11-06T05:24:09.399Z,4.15
2017-11-06T05:25:09.382Z,4.24
2017-11-06T05:26:09.393Z,4.2
2017-11-06T05:27:09.693Z,4.22
2017-11-06T05:28:09.343Z,4.26
2017-11-06T05:29:09.327Z,4.22
2017-11-06T05:30:09.651Z,4.29
2017-11-06T05:31:09.318Z,4.22
2017-11-06T05:32:09.620Z,4.22
2017-11-06T05:33:09.983Z,4.17
2017-11-06T05:34:09.948Z,4.24
2017-11-06T05:35:09.952Z,4.18
2017-11-06T05:36:09.239Z,4.22
2017-11-06T05:37:09.545Z,4.18
2017-11-06T05:38:09.532Z,4.22
2017-11-06T05:39:09.519Z,4.21
2017-11-06T05:40:09.159Z,4.22
2017-11-06T05:41:09.164Z,4.22
2017-11-06T05:42:09.465Z,4.22
2017-11-06T05:43:09.459Z,4.18
2017-11-06T05:44:09.440Z,4.15
2017-11-06T05:45:09.432Z,4.14
2017-11-06T05:46:09.439Z,4.2
2017-11-06T05:47:09.400Z,4.18
2017-11-06T05:48:09.399Z,4.12
2017-11-06T05:49:09.027Z,4.11
2017-11-06T05:50:09.349Z,4.11
2017-11-06T05:51:08.995Z,4.12
2017-11-06T05:52:09.326Z,4.17
2017-11-06T05:53:09.309Z,4.15
2017-11-06T05:54:09.651Z,4.12
2017-11-06T05:55:09.277Z,4.14
2017-11-06T05:56:09.262Z,4.18
2017-11-06T05:57:09.585Z,4.07
2017-11-06T05:58:09.226Z,4.21
2017-11-06T05:59:09.281Z,4.12
2017-11-06T06:00:09.547Z,4.18
2017-11-06T06:01:08.844Z,4.17
2017-11-06T06:02:09.171Z,4.2
2017-11-06T06:03:09.172Z,4.11
2017-11-06T06:04:08.804Z,4.14
2017-11-06T06:05:09.132Z,4.2
2017-11-06T06:06:08.774Z,4.21
2017-11-06T06:07:08.755Z,4.18
2017-11-06T06:08:08.742Z,4.14
2017-11-06T06:09:08.726Z,4.18
2017-11-06T06:10:09.389Z,4.15
2017-11-06T06:11:09.043Z,4.17
2017-11-06T06:12:09.043Z,4.15
2017-11-06T06:13:09.006Z,4.17
2017-11-06T06:14:08.998Z,4.15
2017-11-06T06:15:09.319Z,4.12
2017-11-06T06:16:08.988Z,4.12
2017-11-06T06:17:08.980Z,4.12
2017-11-06T06:18:08.596Z,4.21
2017-11-06T06:19:08.928Z,4.14
2017-11-06T06:20:08.581Z,4.22
2017-11-06T06:21:08.548Z,4.21
2017-11-06T06:22:08.529Z,4.26
2017-11-06T06:23:08.875Z,4.2
2017-11-06T06:24:09.200Z,4.24
2017-11-06T06:25:09.099Z,4.22
2017-11-06T06:26:08.479Z,4.17
2017-11-06T06:27:09.138Z,4.22
2017-11-06T06:28:08.450Z,4.22
2017-11-06T06:29:08.530Z,4.29
2017-11-06T06:30:08.755Z,4.21
2017-11-06T06:31:08.399Z,4.15
2017-11-06T06:32:08.913Z,4.14
2017-11-06T06:33:09.059Z,4.17
2017-11-06T06:34:08.371Z,4.2
2017-11-06T06:35:08.677Z,4.21
2017-11-06T06:36:08.674Z,4.14
2017-11-06T06:37:08.648Z,4.12
2017-11-06T06:38:08.643Z,4.17
2017-11-06T06:39:08.332Z,4.17
2017-11-06T06:40:08.263Z,4.12
2017-11-06T06:41:08.271Z,4.14
2017-11-06T06:42:08.232Z,4.15
2017-11-06T06:43:08.564Z,4.15
2017-11-06T06:44:08.909Z,4.2
2017-11-06T06:45:08.187Z,4.21
2017-11-06T06:46:08.175Z,4.07
2017-11-06T06:47:08.499Z,4.15
2017-11-06T06:48:08.490Z,4.21
2017-11-06T06:49:08.129Z,4.15
2017-11-06T06:50:08.118Z,4.14
2017-11-06T06:51:08.438Z,4.15
2017-11-06T06:52:08.429Z,4.18
2017-11-06T06:53:08.407Z,4.15
2017-11-06T06:54:08.409Z,4.12
2017-11-06T06:55:08.040Z,4.21
2017-11-06T06:56:08.370Z,4.15
2017-11-06T06:57:08.006Z,4.15
2017-11-06T06:58:07.998Z,4.12
2017-11-06T06:59:08.424Z,4.14
2017-11-06T07:00:08.422Z,4.18
2017-11-06T07:01:08.298Z,4.21
2017-11-06T07:02:08.638Z,4.15
2017-11-06T07:03:07.919Z,4.15
2017-11-06T07:04:07.933Z,4.22
2017-11-06T07:05:07.925Z,4.17
2017-11-06T07:06:07.943Z,4.2
2017-11-06T07:07:08.334Z,4.14
2017-11-06T07:08:07.846Z,4.24
2017-11-06T07:09:07.897Z,4.22
2017-11-06T07:10:08.168Z,4.28
2017-11-06T07:11:08.607Z,4.17
2017-11-06T07:12:07.976Z,4.2
2017-11-06T07:13:07.936Z,4.17
2017-11-06T07:14:08.098Z,4.32
2017-11-06T07:15:08.115Z,4.21
2017-11-06T07:16:07.724Z,4.22
2017-11-06T07:17:08.073Z,4.17
2017-11-06T07:18:07.709Z,4.22
2017-11-06T07:19:08.031Z,4.18
2017-11-06T07:20:07.668Z,4.18
2017-11-06T07:21:08.004Z,4.17
2017-11-06T07:22:07.638Z,4.2
2017-11-06T07:23:08.038Z,4.28
2017-11-06T07:24:07.606Z,4.26
2017-11-06T07:25:07.939Z,4.28
2017-11-06T07:26:07.583Z,4.24
2017-11-06T07:27:07.561Z,4.26
2017-11-06T07:28:07.547Z,4.35
2017-11-06T07:29:07.533Z,4.24
2017-11-06T07:30:07.890Z,4.3
2017-11-06T07:31:07.897Z,4.3
2017-11-06T07:32:07.864Z,4.2
2017-11-06T07:33:08.181Z,4.28
2017-11-06T07:34:07.800Z,4.35
2017-11-06T07:35:07.488Z,4.24
2017-11-06T07:36:08.124Z,4.24
2017-11-06T07:37:07.753Z,4.28
2017-11-06T07:38:07.417Z,4.32
2017-11-06T07:39:07.382Z,4.3
2017-11-06T07:40:08.362Z,4.26
2017-11-06T07:41:08.045Z,4.32
2017-11-06T07:42:07.676Z,4.35
2017-11-06T07:43:07.666Z,4.28
2017-11-06T07:44:07.653Z,4.29
2017-11-06T07:45:07.669Z,4.26
2017-11-06T07:46:07.331Z,4.28
2017-11-06T07:47:07.262Z,4.32
2017-11-06T07:48:07.589Z,4.33
2017-11-06T07:49:07.602Z,4.28
2017-11-06T07:50:07.249Z,4.36
2017-11-06T07:51:07.561Z,4.38
2017-11-06T07:52:07.193Z,4.4
2017-11-06T07:53:07.523Z,4.42
2017-11-06T07:54:07.162Z,4.36
2017-11-06T07:55:07.145Z,4.36
2017-11-06T07:56:07.475Z,4.33
2017-11-06T07:57:07.334Z,4.39
2017-11-06T07:58:07.101Z,4.32
2017-11-06T07:59:07.105Z,4.36
2017-11-06T08:00:07.425Z,4.39
2017-11-06T08:01:07.399Z,4.33
2017-11-06T08:02:07.397Z,4.38
2017-11-06T08:03:07.368Z,4.36
2017-11-06T08:04:07.697Z,4.4
2017-11-06T08:05:07.351Z,4.42
2017-11-06T08:06:07.327Z,4.44
2017-11-06T08:07:06.963Z,4.4
2017-11-06T08:08:07.653Z,4.42
2017-11-06T08:09:07.304Z,4.46
2017-11-06T08:10:06.921Z,4.46
2017-11-06T08:11:07.250Z,4.44
2017-11-06T08:12:06.914Z,4.48
2017-11-06T08:13:07.220Z,4.39
2017-11-06T08:14:07.567Z,4.36
2017-11-06T08:15:07.202Z,4.39
2017-11-06T08:16:06.837Z,4.38
2017-11-06T08:17:07.161Z,4.39
2017-11-06T08:18:07.482Z,4.33
2017-11-06T08:19:06.790Z,4.39
2017-11-06T08:20:07.317Z,4.36
2017-11-06T08:21:06.760Z,4.33
2017-11-06T08:22:06.742Z,4.33
2017-11-06T08:23:06.730Z,4.28
2017-11-06T08:24:07.061Z,4.26
2017-11-06T08:25:06.702Z,4.29
2017-11-06T08:26:06.693Z,4.3
2017-11-06T08:27:06.672Z,4.32
2017-11-06T08:28:06.658Z,4.29
2017-11-06T08:29:07.288Z,4.32
2017-11-06T08:30:07.212Z,4.28
2017-11-06T08:31:07.294Z,4.35
2017-11-06T08:32:06.940Z,4.3
2017-11-06T08:33:06.583Z,4.26
2017-11-06T08:34:06.594Z,4.36
2017-11-06T08:35:06.558Z,4.35
2017-11-06T08:36:06.534Z,4.28
2017-11-06T08:37:06.868Z,4.3
2017-11-06T08:38:06.852Z,4.15
2017-11-06T08:39:06.513Z,4.24
2017-11-06T08:40:06.820Z,4.24
2017-11-06T08:41:06.815Z,4.26
2017-11-06T08:42:06.790Z,4.29
2017-11-06T08:43:06.438Z,4.28
2017-11-06T08:44:07.164Z,4.3
2017-11-06T08:45:06.757Z,4.28
2017-11-06T08:46:06.398Z,4.29
2017-11-06T08:47:06.714Z,4.22
2017-11-06T08:48:06.720Z,4.24
2017-11-06T08:49:07.035Z,4.29
2017-11-06T08:50:06.672Z,4.22
2017-11-06T08:51:06.315Z,4.29
2017-11-06T08:52:06.297Z,4.32
2017-11-06T08:53:06.285Z,4.32
2017-11-06T08:54:06.618Z,4.28
2017-11-06T08:55:06.591Z,4.36
2017-11-06T08:56:06.262Z,4.28
2017-11-06T08:57:06.222Z,4.32
2017-11-06T08:58:06.568Z,4.28
2017-11-06T08:59:06.236Z,4.3
2017-11-06T09:00:06.547Z,4.24
2017-11-06T09:01:06.515Z,4.24
2017-11-06T09:02:06.149Z,4.3
2017-11-06T09:03:06.514Z,4.33
2017-11-06T09:04:06.461Z,4.32
2017-11-06T09:05:06.448Z,4.35
2017-11-06T09:06:06.086Z,4.32
2017-11-06T09:07:06.075Z,4.3
2017-11-06T09:08:06.742Z,4.32
2017-11-06T09:09:06.050Z,4.3
2017-11-06T09:10:06.031Z,4.3
2017-11-06T09:11:06.353Z,4.33
2017-11-06T09:12:06.005Z,4.36
2017-11-06T09:13:05.980Z,4.35
2017-11-06T09:14:05.972Z,4.3
2017-11-06T09:15:05.956Z,4.36
2017-11-06T09:16:06.624Z,4.4
2017-11-06T09:17:06.281Z,4.46
2017-11-06T09:18:06.628Z,4.42
2017-11-06T09:19:05.897Z,4.51
2017-11-06T09:20:06.228Z,4.48
2017-11-06T09:21:06.246Z,4.47
2017-11-06T09:22:05.861Z,4.46
2017-11-06T09:23:05.840Z,4.54
2017-11-06T09:24:06.163Z,4.51
2017-11-06T09:25:06.147Z,4.53
2017-11-06T09:26:05.789Z,4.48
2017-11-06T09:27:06.120Z,4.51
2017-11-06T09:28:05.775Z,4.5
2017-11-06T09:29:05.750Z,4.46
2017-11-06T09:30:06.096Z,4.51
2017-11-06T09:31:05.716Z,4.54
2017-11-06T09:32:06.401Z,4.54
2017-11-06T09:33:06.062Z,4.51
2017-11-06T09:34:06.017Z,4.54
2017-11-06T09:35:05.655Z,4.53
2017-11-06T09:36:05.639Z,4.47
2017-11-06T09:37:05.979Z,4.57
2017-11-06T09:38:05.956Z,4.57
2017-11-06T09:39:05.939Z,4.47
2017-11-06T09:40:05.945Z,4.51
2017-11-06T09:41:05.568Z,4.47
2017-11-06T09:42:05.894Z,4.53
2017-11-06T09:43:05.882Z,4.6
2017-11-06T09:44:05.524Z,4.56
2017-11-06T09:45:05.861Z,4.5
2017-11-06T09:46:06.182Z,4.48
2017-11-06T09:47:05.840Z,4.51
2017-11-06T09:48:05.822Z,4.51
2017-11-06T09:49:05.453Z,4.51
2017-11-06T09:50:05.780Z,4.46
2017-11-06T09:51:05.772Z,4.46
2017-11-06T09:52:05.749Z,4.5
2017-11-06T09:53:05.728Z,4.54
2017-11-06T09:54:05.726Z,4.51
2017-11-06T09:55:05.383Z,4.51
2017-11-06T09:56:05.692Z,4.54
2017-11-06T09:57:05.357Z,4.46
2017-11-06T09:58:05.660Z,4.61
2017-11-06T09:59:05.648Z,4.57
2017-11-06T10:00:05.633Z,4.58
2017-11-06T10:01:05.279Z,4.6
2017-11-06T10:02:05.264Z,4.54
2017-11-06T10:03:05.596Z,4.56
2017-11-06T10:04:05.573Z,4.48
2017-11-06T10:05:05.232Z,4.57
2017-11-06T10:06:05.537Z,4.54
2017-11-06T10:07:05.187Z,4.53
2017-11-06T10:08:05.191Z,4.61
2017-11-06T10:09:05.497Z,4.47
2017-11-06T10:10:05.169Z,4.51
2017-11-06T10:11:05.127Z,4.5
2017-11-06T10:12:05.114Z,4.61
2017-11-06T10:13:05.452Z,4.65
2017-11-06T10:14:05.094Z,4.72
2017-11-06T10:15:05.773Z,4.69
2017-11-06T10:16:05.059Z,4.72
2017-11-06T10:17:05.043Z,4.87
2017-11-06T10:18:05.369Z,4.83
2017-11-06T10:19:05.021Z,4.91
2017-11-06T10:20:05.340Z,4.76
2017-11-06T10:21:04.980Z,4.74
2017-11-06T10:22:04.970Z,4.78
2017-11-06T10:23:05.308Z,4.79
2017-11-06T10:24:04.952Z,4.88
2017-11-06T10:25:04.947Z,4.94
2017-11-06T10:26:05.252Z,4.94
2017-11-06T10:27:05.236Z,4.88
2017-11-06T10:28:04.902Z,4.95
2017-11-06T10:29:04.864Z,4.84
2017-11-06T10:30:04.850Z,4.72
2017-11-06T10:31:05.180Z,4.76
2017-11-06T10:32:04.823Z,4.83
2017-11-06T10:33:04.806Z,4.74
2017-11-06T10:34:04.792Z,4.68
2017-11-06T10:35:04.778Z,4.72
2017-11-06T10:36:05.137Z,4.78
2017-11-06T10:37:05.088Z,4.74
2017-11-06T10:38:04.737Z,4.74
2017-11-06T10:39:05.068Z,4.74
2017-11-06T10:40:05.387Z,4.79
2017-11-06T10:41:04.693Z,4.76
2017-11-06T10:42:05.358Z,4.76
2017-11-06T10:43:05.003Z,4.72
2017-11-06T10:44:04.666Z,4.84
2017-11-06T10:45:04.636Z,4.75
2017-11-06T10:46:04.617Z,4.72
2017-11-06T10:47:04.984Z,4.85
2017-11-06T10:48:04.933Z,4.87
2017-11-06T10:49:04.577Z,4.74
2017-11-06T10:50:04.565Z,4.79
2017-11-06T10:51:04.548Z,4.78
2017-11-06T10:52:04.531Z,4.79
2017-11-06T10:53:04.518Z,4.85
2017-11-06T10:54:04.512Z,4.83
2017-11-06T10:55:05.174Z,4.91
2017-11-06T10:56:04.474Z,4.94
2017-11-06T10:57:05.157Z,4.9
2017-11-06T10:58:04.450Z,4.92
2017-11-06T10:59:04.431Z,4.95
2017-11-06T11:00:04.422Z,5
2017-11-06T11:01:04.401Z,4.98
2017-11-06T11:02:04.739Z,5.05
2017-11-06T11:03:05.062Z,5
2017-11-06T11:04:04.359Z,5.05
2017-11-06T11:05:05.021Z,5.02
2017-11-06T11:06:04.338Z,5.02
2017-11-06T11:07:04.663Z,5.03
2017-11-06T11:08:04.301Z,5.05
2017-11-06T11:09:04.301Z,4.97
2017-11-06T11:10:04.275Z,5.09
2017-11-06T11:11:04.615Z,5.09
2017-11-06T11:12:04.242Z,5
2017-11-06T11:13:04.569Z,5.1
2017-11-06T11:14:04.897Z,5.06
2017-11-06T11:15:04.223Z,5.06
2017-11-06T11:16:04.535Z,5.05
2017-11-06T11:17:04.171Z,5.05
2017-11-06T11:18:04.155Z,5.09
2017-11-06T11:19:04.147Z,5.15
2017-11-06T11:20:04.477Z,5.15
2017-11-06T11:21:04.463Z,5.13
2017-11-06T11:22:04.813Z,5.18
2017-11-06T11:23:04.085Z,5.24
2017-11-06T11:24:04.752Z,5.24
2017-11-06T11:25:04.400Z,5.33
2017-11-06T11:26:04.046Z,5.34
2017-11-06T11:27:04.376Z,5.31
2017-11-06T11:28:04.361Z,5.39
2017-11-06T11:29:04.009Z,5.33
2017-11-06T11:30:03.988Z,5.41
2017-11-06T11:31:03.998Z,5.39
2017-11-06T11:32:04.304Z,5.46
2017-11-06T11:33:04.627Z,5.45
2017-11-06T11:34:03.930Z,5.51
2017-11-06T11:35:03.917Z,5.52
2017-11-06T11:36:04.272Z,5.52
2017-11-06T11:37:03.891Z,5.52
2017-11-06T11:38:03.895Z,5.52
2017-11-06T11:39:03.867Z,5.45
2017-11-06T11:40:03.845Z,5.55
2017-11-06T11:41:04.527Z,5.63
2017-11-06T11:42:04.512Z,5.62
2017-11-06T11:43:04.146Z,5.6
2017-11-06T11:44:04.134Z,5.64
2017-11-06T11:45:04.115Z,5.6
2017-11-06T11:46:03.766Z,5.67
2017-11-06T11:47:03.747Z,5.66
2017-11-06T11:48:03.774Z,5.59
2017-11-06T11:49:04.066Z,5.67
2017-11-06T11:50:03.728Z,5.63
2017-11-06T11:51:03.694Z,5.67
2017-11-06T11:52:03.701Z,5.73
2017-11-06T11:53:04.013Z,5.82
2017-11-06T11:54:03.658Z,5.72
2017-11-06T11:55:03.977Z,5.73
2017-11-06T11:56:03.982Z,5.81
2017-11-06T11:57:03.627Z,5.72
2017-11-06T11:58:03.599Z,5.72
2017-11-06T11:59:03.584Z,5.66
2017-11-06T12:00:03.910Z,5.75
2017-11-06T12:01:03.556Z,5.72
2017-11-06T12:02:04.249Z,5.72
2017-11-06T12:03:03.538Z,5.72
2017-11-06T12:04:04.206Z,5.73
2017-11-06T12:05:03.842Z,5.78
2017-11-06T12:06:03.850Z,5.73
2017-11-06T12:07:03.827Z,5.77
2017-11-06T12:08:03.458Z,5.75
2017-11-06T12:09:03.787Z,5.77
2017-11-06T12:10:03.777Z,5.63
2017-11-06T12:11:04.115Z,5.62
2017-11-06T12:12:03.746Z,5.67
2017-11-06T12:13:03.731Z,5.59
2017-11-06T12:14:03.377Z,5.6
2017-11-06T12:15:03.751Z,5.59
2017-11-06T12:16:03.691Z,5.48
2017-11-06T12:17:03.335Z,5.44
2017-11-06T12:18:03.659Z,5.44
2017-11-06T12:19:03.653Z,5.42
2017-11-06T12:20:03.636Z,5.41
2017-11-06T12:21:03.988Z,5.44
2017-11-06T12:22:03.960Z,5.41
2017-11-06T12:23:03.615Z,5.46
2017-11-06T12:24:03.580Z,5.46
2017-11-06T12:25:03.226Z,5.51
2017-11-06T12:26:03.555Z,5.63
2017-11-06T12:27:03.538Z,5.67
2017-11-06T12:28:03.527Z,5.8
2017-11-06T12:29:03.170Z,5.8
2017-11-06T12:30:03.840Z,5.91
2017-11-06T12:31:03.151Z,6.06
2017-11-06T12:32:03.130Z,6.15
2017-11-06T12:33:03.112Z,6.28
2017-11-06T12:34:03.103Z,6.24
2017-11-06T12:35:03.430Z,6.36
2017-11-06T12:36:03.422Z,6.28
2017-11-06T12:37:03.063Z,6.29
2017-11-06T12:38:03.395Z,6.26
2017-11-06T12:39:03.083Z,6.21
2017-11-06T12:40:03.362Z,6.1
2017-11-06T12:41:03.004Z,5.98
2017-11-06T12:42:03.332Z,5.96
2017-11-06T12:43:02.979Z,5.88
2017-11-06T12:44:02.970Z,5.82
2017-11-06T12:45:03.291Z,5.84
2017-11-06T12:46:03.142Z,5.89
2017-11-06T12:47:02.928Z,5.85
2017-11-06T12:48:03.260Z,5.84
2017-11-06T12:49:02.899Z,5.96
2017-11-06T12:50:03.263Z,5.91
2017-11-06T12:51:03.563Z,6.03
2017-11-06T12:52:02.859Z,5.91
2017-11-06T12:53:02.841Z,6.03
2017-11-06T12:54:03.192Z,6
2017-11-06T12:55:03.169Z,6
2017-11-06T12:56:03.145Z,6.07
2017-11-06T12:57:02.793Z,6.07
2017-11-06T12:58:03.119Z,6
2017-11-06T12:59:02.770Z,6
2017-11-06T13:00:02.748Z,6.05
2017-11-06T13:01:03.413Z,6.06
2017-11-06T13:02:03.066Z,6.06
2017-11-06T13:03:03.056Z,6.02
2017-11-06T13:04:03.039Z,6.02
2017-11-06T13:05:02.682Z,6.06
2017-11-06T13:06:03.391Z,5.98
2017-11-06T13:07:02.653Z,5.98
2017-11-06T13:08:02.983Z,6.07
2017-11-06T13:09:02.972Z,6.05
2017-11-06T13:10:02.991Z,6.1
2017-11-06T13:11:02.597Z,6.07
2017-11-06T13:12:02.960Z,6.1
2017-11-06T13:13:02.575Z,6.17
2017-11-06T13:14:03.237Z,6.17
2017-11-06T13:15:02.548Z,6.13
2017-11-06T13:16:02.907Z,6.07
2017-11-06T13:17:02.522Z,6.06
2017-11-06T13:18:02.513Z,5.96
2017-11-06T13:19:02.504Z,5.96
2017-11-06T13:20:02.821Z,5.91
2017-11-06T13:21:02.808Z,5.96